Time;durP1;ratioP1;P1;durP2;ratioP2;P2;SDS_P1;SDS_P2;PMS_P1;PMS_P2;Temp;Humidity;BMP_temperature;BMP_pressure;BME280_temperature;BME280_humidity;BME280_pressure;Samples;Min_cycle;Max_cycle;Signal;HPM_P1;HPM_P2
2022/01/28 00:05:17;;;;;;;32.03;12.25;;;;;;;-5.07;100.00;60276.09;5112974;28;20674;-76
2022/01/28 00:07:45;;;;;;;21.77;8.57;;;;;;;-3.47;100.00;60446.19;5113382;28;20207;-75
2022/01/28 00:10:13;;;;;;;21.85;10.25;;;;;;;-5.02;100.00;60286.31;5113250;28;20303;-76
2022/01/28 00:13:04;;;;;;;21.65;9.25;;;;;;;-3.54;100.00;60439.34;5112834;28;20207;-75
2022/01/28 00:15:37;;;;;;;20.58;9.95;;;;;;;-3.49;100.00;60444.09;5113524;28;20662;-73
2022/01/28 00:40:34;;;;;;;19.80;8.80;;;;;;;-3.84;100.00;60404.69;5047452;28;20288;-74
2022/01/28 00:43:02;;;;;;;21.70;9.95;;;;;;;-3.88;100.00;60403.47;5072736;28;20193;-76
2022/01/28 00:45:32;;;;;;;21.55;8.20;;;;;;;-4.23;100.00;60361.06;5072119;28;20200;-73
2022/01/28 00:48:00;;;;;;;20.85;8.75;;;;;;;-4.11;100.00;60376.19;5072126;28;20266;-75
2022/01/28 00:50:27;;;;;;;18.85;8.85;;;;;;;-3.95;100.00;60391.13;5072116;28;20247;-75
2022/01/28 00:52:55;;;;;;;21.52;8.82;;;;;;;-4.21;100.00;60363.16;5071882;28;20240;-75
2022/01/28 00:55:22;;;;;;;24.02;9.82;;;;;;;-4.12;100.00;60375.16;5071851;28;20220;-74
2022/01/28 00:57:50;;;;;;;21.25;9.73;;;;;;;-4.03;100.00;60387.66;5072254;28;20196;-74
2022/01/28 01:00:22;;;;;;;20.00;9.35;;;;;;;-3.95;100.00;60391.13;5072544;28;20200;-75
2022/01/28 01:02:52;;;;;;;25.45;9.38;;;;;;;-3.93;100.00;60395.19;5071046;28;20204;-74
2022/01/28 01:05:20;;;;;;;22.15;8.82;;;;;;;-4.75;100.00;60312.28;5071996;28;20685;-74
2022/01/28 01:07:47;;;;;;;19.70;8.68;;;;;;;-3.90;100.00;60400.84;5072222;28;20728;-74
2022/01/28 01:10:14;;;;;;;24.92;9.57;;;;;;;-5.63;100.00;60224.56;5072023;28;20227;-74
2022/01/28 01:12:44;;;;;;;23.30;9.52;;;;;;;-5.22;100.00;60260.81;5072683;28;20200;-75
2022/01/28 01:15:17;;;;;;;24.27;9.23;;;;;;;-4.03;100.00;60379.66;5073564;28;20236;-75
2022/01/28 01:17:54;;;;;;;17.42;7.80;;;;;;;-4.08;100.00;60382.38;5076559;28;20265;-74
2022/01/28 01:23:10;;;;;;;21.50;9.82;;;;;;;-4.15;100.00;60375.00;5075273;28;20634;-73
2022/01/28 01:25:48;;;;;;;18.40;8.50;;;;;;;-5.42;100.00;60241.69;5075778;28;20592;-74
2022/01/28 01:28:19;;;;;;;21.85;9.50;;;;;;;-4.15;100.00;60375.00;5075726;28;20670;-74
2022/01/28 01:30:47;;;;;;;23.05;9.80;;;;;;;-5.45;100.00;60233.59;5075861;28;20600;-74
2022/01/28 01:33:19;;;;;;;24.15;9.25;;;;;;;-4.14;100.00;60371.06;5093100;28;20689;-73
2022/01/28 01:35:51;;;;;;;26.73;8.88;;;;;;;-5.86;100.00;60195.38;5098077;28;20206;-73
2022/01/28 01:38:24;;;;;;;20.40;8.80;;;;;;;-4.05;100.00;60383.06;5116286;28;20213;-75
2022/01/28 01:40:55;;;;;;;26.05;9.35;;;;;;;-4.13;100.00;60371.59;5116105;28;20205;-74
2022/01/28 01:43:36;;;;;;;20.42;9.50;;;;;;;-3.99;100.00;60383.88;5116482;28;20202;-74
2022/01/28 01:46:14;;;;;;;18.23;9.15;;;;;;;-4.06;100.00;60379.50;5116155;28;20195;-75
2022/01/28 01:54:14;;;;;;;20.80;8.82;;;;;;;-4.09;100.00;60376.34;5116289;28;20280;-73
2022/01/28 01:56:42;;;;;;;27.65;10.55;;;;;;;-4.62;100.00;60315.50;5115536;28;20588;-74
2022/01/28 01:59:10;;;;;;;18.17;8.48;;;;;;;-4.21;100.00;60363.16;5115540;28;20198;-75
2022/01/28 02:01:39;;;;;;;20.23;8.70;;;;;;;-4.10;100.00;60377.25;5115638;28;20203;-76
2022/01/28 02:04:06;;;;;;;17.80;8.10;;;;;;;-4.07;100.00;60382.91;5115356;28;20760;-74
2022/01/28 02:06:37;;;;;;;20.48;8.88;;;;;;;-4.02;100.00;60388.19;5097596;28;20199;-73
2022/01/28 02:09:06;;;;;;;19.60;8.65;;;;;;;-4.41;100.00;60345.63;5115360;28;20222;-74
2022/01/28 02:11:33;;;;;;;18.90;8.02;;;;;;;-5.36;100.00;60248.00;5115436;28;20282;-74
2022/01/28 02:14:02;;;;;;;17.67;8.27;;;;;;;-4.25;100.00;60363.94;5097285;28;20199;-74
2022/01/28 02:16:31;;;;;;;22.70;9.00;;;;;;;-4.34;100.00;60355.50;5114610;28;20199;-73
2022/01/28 02:19:00;;;;;;;22.38;8.77;;;;;;;-4.14;100.00;60373.03;5114959;28;20620;-74
2022/01/28 02:21:33;;;;;;;20.15;8.77;;;;;;;-4.18;100.00;60371.81;5115183;28;20214;-73
2022/01/28 02:24:03;;;;;;;18.88;8.43;;;;;;;-5.41;100.00;60240.28;5115891;28;20191;-75
2022/01/28 02:26:35;;;;;;;22.15;9.35;;;;;;;-4.37;100.00;60349.84;5114258;28;20202;-75
2022/01/28 02:29:11;;;;;;;21.75;8.50;;;;;;;-4.40;100.00;60348.63;5114796;28;20690;-74
2022/01/28 02:31:45;;;;;;;20.70;8.55;;;;;;;-4.28;100.00;60355.81;5115453;28;20198;-72
2022/01/28 02:34:12;;;;;;;23.90;9.95;;;;;;;-4.34;100.00;60355.50;5116581;28;20721;-72
2022/01/28 02:36:44;;;;;;;22.10;8.57;;;;;;;-4.42;100.00;60347.06;5131195;28;20199;-72
2022/01/28 02:39:12;;;;;;;15.77;8.18;;;;;;;-4.37;100.00;60352.34;5131095;28;20206;-74
2022/01/28 02:41:43;;;;;;;19.77;8.45;;;;;;;-4.31;100.00;60353.69;5132276;28;20199;-72
2022/01/28 02:44:19;;;;;;;20.85;8.93;;;;;;;-4.27;100.00;60362.34;5129615;28;20195;-72
2022/01/28 02:46:56;;;;;;;20.77;8.40;;;;;;;-4.31;100.00;60353.16;5115374;28;20202;-73
2022/01/28 02:49:26;;;;;;;22.25;8.23;;;;;;;-4.28;100.00;60351.88;5115275;28;20233;-74
2022/01/28 02:51:57;;;;;;;19.58;8.15;;;;;;;-4.97;100.00;60284.13;5097115;28;20580;-73
2022/01/28 02:54:24;;;;;;;23.27;8.90;;;;;;;-4.26;100.00;60360.41;5114424;28;20199;-75
2022/01/28 02:57:00;;;;;;;20.50;8.50;;;;;;;-4.30;100.00;60354.72;5114474;28;20219;-75
2022/01/28 02:59:30;;;;;;;22.10;8.18;;;;;;;-4.28;100.00;60360.78;5114717;28;20689;-74
2022/01/28 03:01:59;;;;;;;21.05;8.68;;;;;;;-4.17;100.00;60369.88;5114535;28;20198;-74
2022/01/28 03:04:59;;;;;;;16.88;7.80;;;;;;;-4.12;100.00;60377.63;5114936;28;20195;-73
2022/01/28 03:07:29;;;;;;;24.60;9.23;;;;;;;-4.21;100.00;60360.69;5114675;28;20244;-74
2022/01/28 03:10:25;;;;;;;29.20;12.93;;;;;;;-4.13;100.00;60376.56;5114217;28;20778;-75
2022/01/28 03:13:15;;;;;;;47.55;21.25;;;;;;;-4.36;100.00;60350.91;5113886;28;20199;-74
2022/01/28 03:15:52;;;;;;;30.33;10.23;;;;;;;-4.13;100.00;60374.63;5114649;28;20210;-74
2022/01/28 03:18:23;;;;;;;19.98;8.93;;;;;;;-4.50;100.00;60333.66;5096368;28;20210;-75
2022/01/28 03:21:01;;;;;;;24.30;9.15;;;;;;;-4.34;100.00;60355.50;5114148;28;20255;-75
2022/01/28 03:23:35;;;;;;;33.10;12.00;;;;;;;-4.21;100.00;60368.13;5114190;28;20203;-74
2022/01/28 03:26:04;;;;;;;24.05;8.70;;;;;;;-4.41;100.00;60343.16;5113899;28;20273;-76
2022/01/28 03:28:31;;;;;;;26.77;9.50;;;;;;;-4.60;100.00;60328.06;5113788;28;20625;-76
2022/01/28 03:30:59;;;;;;;26.58;9.13;;;;;;;-4.53;100.00;60329.97;5113884;28;20269;-73
2022/01/28 03:33:34;;;;;;;22.90;9.20;;;;;;;-4.77;100.00;60310.16;5114140;28;20266;-74
2022/01/28 03:36:06;;;;;;;26.80;9.52;;;;;;;-5.16;100.00;60267.13;5115091;28;20310;-75
2022/01/28 03:38:37;;;;;;;20.02;7.70;;;;;;;-5.59;100.00;60211.41;5114049;28;20233;-73
2022/01/28 03:41:04;;;;;;;20.38;7.82;;;;;;;-4.34;100.00;60355.50;5113670;28;20223;-75
2022/01/28 03:43:31;;;;;;;26.42;8.77;;;;;;;-4.33;100.00;60356.56;5114209;28;20237;-74
2022/01/28 03:45:58;;;;;;;24.55;9.48;;;;;;;-4.37;100.00;60347.38;5122770;28;20207;-74
2022/01/28 03:48:25;;;;;;;16.98;7.60;;;;;;;-4.36;100.00;60348.41;5114173;28;20580;-74
2022/01/28 03:51:01;;;;;;;20.95;8.00;;;;;;;-4.28;100.00;60356.84;5113611;28;20230;-74
2022/01/28 03:53:39;;;;;;;23.40;8.30;;;;;;;-4.21;100.00;60363.16;5113733;28;20205;-73
2022/01/28 03:56:06;;;;;;;17.80;7.43;;;;;;;-6.30;100.00;60145.19;5113451;28;20211;-75
2022/01/28 03:58:33;;;;;;;16.48;7.78;;;;;;;-4.31;100.00;60356.19;5113214;28;20225;-73
2022/01/28 04:01:04;;;;;;;19.90;8.10;;;;;;;-4.39;100.00;60345.25;5113076;28;20195;-74
2022/01/28 04:03:47;;;;;;;22.48;8.55;;;;;;;-4.26;100.00;60363.38;5112753;28;20653;-75
2022/01/28 04:11:56;;;;;;;19.13;6.55;;;;;;;-4.44;100.00;60339.97;5113306;28;20198;-76
2022/01/28 04:14:38;;;;;;;22.73;8.55;;;;;;;-4.38;100.00;60351.28;5113064;28;20191;-75
2022/01/28 04:17:23;;;;;;;19.85;7.88;;;;;;;-4.47;100.00;60338.78;5113068;28;20195;-75
2022/01/28 04:19:55;;;;;;;22.10;8.35;;;;;;;-5.29;100.00;60255.41;5095210;28;20276;-75
2022/01/28 04:22:23;;;;;;;23.50;8.13;;;;;;;-5.06;100.00;60279.59;5112887;28;20673;-74
2022/01/28 04:24:55;;;;;;;25.70;9.35;;;;;;;-4.40;100.00;60349.16;5112801;28;20244;-74
2022/01/28 04:27:24;;;;;;;20.02;8.55;;;;;;;-4.31;100.00;60358.66;5112961;28;20221;-77
2022/01/28 04:29:54;;;;;;;20.60;8.88;;;;;;;-4.25;100.00;60358.94;5113181;28;20590;-74
2022/01/28 04:32:25;;;;;;;21.77;8.68;;;;;;;-5.07;100.00;60278.56;5095112;28;20629;-75
2022/01/28 04:34:54;;;;;;;20.52;9.18;;;;;;;-4.37;100.00;60352.34;5113617;28;20231;-74
2022/01/28 04:37:30;;;;;;;23.02;9.02;;;;;;;-4.25;100.00;60359.47;5112191;28;20205;-75
2022/01/28 04:40:11;;;;;;;28.02;10.60;;;;;;;-5.64;100.00;60218.53;5112657;28;20201;-74
2022/01/28 04:45:29;;;;;;;22.98;11.05;;;;;;;-4.51;100.00;60335.09;5107906;28;20201;-74
2022/01/28 04:51:05;;;;;;;25.38;10.55;;;;;;;-4.37;100.00;60349.31;5110155;28;20234;-75
2022/01/28 04:53:54;;;;;;;26.05;12.45;;;;;;;-4.46;100.00;60337.88;5113065;28;20203;-74
2022/01/28 05:05:25;;;;;;;62.85;22.95;;;;;;;-5.60;100.00;60223.28;5057034;28;20305;-74
2022/01/28 05:08:12;;;;;;;55.85;19.88;;;;;;;-6.75;100.00;60102.28;5094470;28;20607;-73
2022/01/28 05:14:03;;;;;;;60.40;21.40;;;;;;;-6.16;100.00;60159.41;5112524;28;20266;-74
2022/01/28 05:27:42;;;;;;;50.40;21.25;;;;;;;-6.07;100.00;60176.81;5054761;28;20267;-73
2022/01/28 05:30:14;;;;;;;54.60;19.25;;;;;;;-7.36;100.00;60038.72;5094459;28;20226;-75
2022/01/28 05:32:42;;;;;;;48.50;17.70;;;;;;;-6.07;100.00;60168.84;5094263;28;20199;-75
2022/01/28 05:35:10;;;;;;;138.65;47.55;;;;;;;-6.09;100.00;60167.28;5112030;28;20199;-72
2022/01/28 05:37:36;;;;;;;122.15;39.85;;;;;;;-6.53;100.00;60128.44;5111803;28;20203;-73
2022/01/28 05:40:04;;;;;;;105.95;36.53;;;;;;;-5.93;100.00;60185.56;5111926;28;20252;-75
2022/01/28 05:42:34;;;;;;;150.20;52.38;;;;;;;-6.23;100.00;60155.03;5093765;28;20203;-76
2022/01/28 05:45:01;;;;;;;207.90;67.45;;;;;;;-6.01;100.00;60179.63;5111842;28;20207;-74
2022/01/28 05:47:35;;;;;;;236.10;80.03;;;;;;;-5.97;100.00;60178.88;5113508;28;20197;-75
2022/01/28 05:50:05;;;;;;;229.30;79.90;;;;;;;-5.91;100.00;60187.66;5112412;28;20234;-75
2022/01/28 05:52:32;;;;;;;221.82;73.85;;;;;;;-7.14;100.00;60059.88;5112571;28;20207;-73
2022/01/28 05:55:00;;;;;;;175.57;60.65;;;;;;;-6.60;100.00;60113.66;5111871;28;20207;-75
2022/01/28 05:57:28;;;;;;;136.98;50.58;;;;;;;-5.88;100.00;60193.28;5111744;28;20280;-74
2022/01/28 05:59:55;;;;;;;114.20;39.63;;;;;;;-6.87;100.00;60085.25;5112284;28;20195;-76
2022/01/28 06:02:22;;;;;;;83.35;30.35;;;;;;;-6.77;100.00;60098.25;5096658;28;20302;-75
2022/01/28 06:04:57;;;;;;;74.35;27.67;;;;;;;-5.36;100.00;60248.53;5115651;28;20199;-74
2022/01/28 06:07:24;;;;;;;55.85;20.65;;;;;;;-6.20;100.00;60155.72;5115789;28;20680;-74
2022/01/28 06:09:57;;;;;;;126.20;42.85;;;;;;;-4.86;100.00;60295.72;5115273;28;20238;-75
2022/01/28 06:12:24;;;;;;;95.45;32.67;;;;;;;-4.82;100.00;60301.88;5115909;28;20203;-74
2022/01/28 06:14:52;;;;;;;71.50;24.80;;;;;;;-3.93;100.00;60393.22;5115494;28;20249;-77
2022/01/28 06:17:19;;;;;;;121.95;42.10;;;;;;;-4.70;100.00;60317.53;5115464;28;20195;-73
2022/01/28 06:19:49;;;;;;;131.95;46.75;;;;;;;-2.98;100.00;60497.94;5115866;28;20198;-74
2022/01/28 06:22:19;;;;;;;132.93;51.25;;;;;;;-2.68;100.00;60529.63;5114960;28;20614;-76
2022/01/28 06:24:48;;;;;;;137.07;52.05;;;;;;;-2.50;100.00;60547.56;5114885;28;20346;-77
2022/01/28 06:27:17;;;;;;;88.33;33.70;;;;;;;-1.41;100.00;60655.31;5113577;28;20210;-75
2022/01/28 06:32:32;;;;;;;44.03;14.30;;;;;;;-0.18;100.00;60789.44;5114765;28;20444;-76
2022/01/28 06:35:15;;;;;;;45.27;16.97;;;;;;;-0.83;100.00;60723.13;5114824;28;20464;-76
2022/01/28 06:37:47;;;;;;;41.83;16.83;;;;;;;-0.67;100.00;60735.59;5115352;28;20436;-75
2022/01/28 06:40:17;;;;;;;36.33;15.13;;;;;;;1.39;100.00;60952.31;5115195;28;20445;-73
2022/01/28 06:42:46;;;;;;;39.50;16.53;;;;;;;2.34;100.00;61052.63;5115206;28;20461;-74
2022/01/28 06:45:20;;;;;;;60.27;23.00;;;;;;;3.22;100.00;61148.63;5096502;28;20441;-77
2022/01/28 06:47:48;;;;;;;30.40;13.33;;;;;;;2.52;100.00;61071.72;5096844;28;20447;-76
2022/01/28 06:50:16;;;;;;;33.50;13.10;;;;;;;3.48;100.00;61173.25;5114897;28;20477;-75
2022/01/28 06:52:45;;;;;;;85.97;26.93;;;;;;;3.80;100.00;61206.75;5114751;28;20437;-76
2022/01/28 06:55:19;;;;;;;79.07;23.17;;;;;;;2.99;100.00;61124.19;5114258;28;20445;-75
2022/01/28 06:57:48;;;;;;;56.77;23.90;;;;;;;2.82;100.00;61105.59;5114491;28;20439;-74
2022/01/28 07:00:16;;;;;;;68.83;24.37;;;;;;;3.99;100.00;61226.94;5114209;28;20860;-77
2022/01/28 07:02:46;;;;;;;52.80;20.37;;;;;;;2.53;100.00;61073.34;5095642;28;20437;-76
2022/01/28 07:05:16;;;;;;;63.87;26.97;;;;;;;3.20;100.00;61143.47;5114190;28;20445;-75
2022/01/28 07:07:51;;;;;;;85.30;35.10;;;;;;;3.14;100.00;61137.09;5114411;28;20981;-75
2022/01/28 07:10:18;;;;;;;79.60;31.93;;;;;;;2.06;100.00;61023.41;5114107;28;20857;-75
2022/01/28 07:15:28;;;;;;;90.37;33.27;;;;;;;3.80;100.00;61207.28;5114219;28;20935;-76
2022/01/28 07:17:57;;;;;;;135.80;38.13;;;;;;;3.77;100.00;61204.06;5114043;28;20441;-77
2022/01/28 07:20:29;;;;;;;100.47;36.10;;;;;;;3.76;100.00;61202.47;5114338;28;20449;-75
2022/01/28 07:23:01;;;;;;;72.13;32.47;;;;;;;2.45;100.00;61069.88;5114402;28;20494;-74
2022/01/28 07:25:30;;;;;;;84.87;38.77;;;;;;;3.03;100.00;61125.41;5114026;28;20437;-74
2022/01/28 07:27:59;;;;;;;92.27;44.70;;;;;;;2.48;100.00;61068.03;5114201;28;20449;-74
2022/01/28 07:33:10;;;;;;;111.60;48.27;;;;;;;1.95;100.00;61011.22;5113017;28;20467;-75
2022/01/28 07:35:38;;;;;;;111.70;48.97;;;;;;;0.47;100.00;60855.28;5113845;28;20523;-77
2022/01/28 07:38:08;;;;;;;103.73;44.67;;;;;;;1.56;100.00;60970.34;5113193;28;20454;-74
2022/01/28 07:40:38;;;;;;;101.63;45.23;;;;;;;1.51;100.00;60970.06;5095430;28;20433;-76
2022/01/28 07:43:05;;;;;;;88.60;41.93;;;;;;;1.50;100.00;60967.03;5096006;28;20447;-74
2022/01/28 07:45:35;;;;;;;100.03;45.47;;;;;;;0.91;100.00;60901.41;5114018;28;20494;-75
2022/01/28 07:48:06;;;;;;;119.00;52.37;;;;;;;0.78;100.00;60888.69;5113882;28;20429;-74
2022/01/28 07:50:34;;;;;;;111.07;49.10;;;;;;;1.08;100.00;60919.97;5113336;28;21002;-76
2022/01/28 07:53:05;;;;;;;91.43;39.47;;;;;;;0.85;100.00;60901.09;5113562;28;20433;-74
2022/01/28 07:55:33;;;;;;;84.83;37.57;;;;;;;1.14;100.00;60926.31;5113567;28;20476;-75
2022/01/28 07:58:04;;;;;;;81.13;35.93;;;;;;;1.38;100.00;60951.78;5115081;28;20436;-76
2022/01/28 08:00:33;;;;;;;83.27;38.73;;;;;;;1.76;100.00;60991.56;5114343;28;20523;-76
2022/01/28 08:03:02;;;;;;;90.47;38.83;;;;;;;1.14;100.00;60926.31;5113458;28;20444;-75
2022/01/28 08:05:34;;;;;;;76.37;35.87;;;;;;;1.98;100.00;61014.91;5095377;28;20433;-75
2022/01/28 08:08:04;;;;;;;72.53;33.93;;;;;;;1.93;100.00;61009.63;5112937;28;20455;-74
2022/01/28 08:10:34;;;;;;;77.43;34.53;;;;;;;1.76;100.00;60994.06;5113206;28;20436;-75
2022/01/28 08:13:03;;;;;;;92.40;38.23;;;;;;;2.07;100.00;61023.94;5113537;28;20488;-75
2022/01/28 08:15:33;;;;;;;74.03;33.70;;;;;;;1.05;100.00;60921.25;5113094;28;20453;-76
2022/01/28 08:18:00;;;;;;;64.50;28.07;;;;;;;1.55;100.00;60974.81;5112823;28;20459;-74
2022/01/28 08:20:30;;;;;;;58.90;25.57;;;;;;;1.37;100.00;60950.72;5112739;28;21008;-75
2022/01/28 08:22:58;;;;;;;63.37;29.10;;;;;;;1.70;100.00;60990.22;5113021;28;20445;-75
2022/01/28 08:25:27;;;;;;;55.47;22.00;;;;;;;2.07;100.00;61024.50;5111881;28;20524;-73
2022/01/28 08:27:57;;;;;;;47.87;20.43;;;;;;;2.16;100.00;61036.00;5112721;28;20532;-74
2022/01/28 08:30:29;;;;;;;44.33;20.00;;;;;;;2.80;100.00;61103.47;5112536;28;20445;-75
2022/01/28 08:32:56;;;;;;;49.30;20.73;;;;;;;3.25;100.00;61151.28;5113306;28;20913;-76
2022/01/28 08:35:30;;;;;;;44.87;20.00;;;;;;;3.69;100.00;61195.56;5113160;28;20440;-76
2022/01/28 08:37:59;;;;;;;38.13;16.57;;;;;;;3.70;100.00;61199.16;5112558;28;20976;-76
2022/01/28 08:40:28;;;;;;;36.30;15.50;;;;;;;3.74;100.00;61205.94;5112473;28;20868;-74
2022/01/28 08:42:59;;;;;;;34.37;14.00;;;;;;;3.59;100.00;61187.44;5112504;28;20966;-75
2022/01/28 08:45:26;;;;;;;38.23;17.73;;;;;;;3.09;100.00;61131.78;5112651;28;20461;-75
2022/01/28 08:47:57;;;;;;;39.63;18.47;;;;;;;3.27;100.00;61156.47;5094342;28;20471;-76
2022/01/28 08:50:26;;;;;;;46.23;21.37;;;;;;;3.43;100.00;61172.94;5112445;28;20441;-75
2022/01/28 08:52:54;;;;;;;52.57;23.47;;;;;;;3.34;100.00;61156.34;5111819;28;21079;-75
2022/01/28 08:55:26;;;;;;;59.37;26.57;;;;;;;3.29;100.00;61153.03;5112287;28;20467;-76
2022/01/28 08:58:00;;;;;;;46.17;23.10;;;;;;;3.00;100.00;61122.22;5112582;28;20493;-74
2022/01/28 09:00:27;;;;;;;53.10;23.67;;;;;;;2.74;100.00;61097.09;5112605;28;20468;-75
2022/01/28 09:03:03;;;;;;;44.80;19.70;;;;;;;2.73;100.00;61093.50;5112137;28;20432;-74
2022/01/28 09:05:30;;;;;;;45.40;20.30;;;;;;;2.41;100.00;61060.06;5112791;28;20440;-75
2022/01/28 09:07:57;;;;;;;48.47;18.93;;;;;;;2.31;100.00;61049.97;5112434;28;20429;-75
2022/01/28 09:10:30;;;;;;;43.87;19.70;;;;;;;1.96;100.00;61012.81;5112142;28;20429;-75
2022/01/28 09:13:22;;;;;;;52.90;25.40;;;;;;;1.67;100.00;60987.03;5112168;28;20966;-75
2022/01/28 09:15:51;;;;;;;67.23;27.37;;;;;;;1.76;100.00;60991.56;5113038;28;20429;-75
2022/01/28 09:18:21;;;;;;;65.40;27.37;;;;;;;1.76;100.00;60994.06;5112304;28;20429;-76
2022/01/28 09:20:50;;;;;;;56.30;26.27;;;;;;;1.93;100.00;61009.63;5112368;28;20455;-75
2022/01/28 09:23:19;;;;;;;70.57;28.43;;;;;;;2.10;100.00;61027.13;5111842;28;20510;-75
2022/01/28 09:25:47;;;;;;;65.37;25.67;;;;;;;2.19;100.00;61042.25;5112108;28;20498;-77
2022/01/28 09:28:20;;;;;;;95.63;33.30;;;;;;;2.42;100.00;61061.09;5111868;28;20456;-76
2022/01/28 09:30:48;;;;;;;55.23;26.67;;;;;;;2.34;100.00;61052.63;5112129;28;20944;-77
2022/01/28 09:33:15;;;;;;;54.00;23.07;;;;;;;2.51;100.00;61071.22;5112556;28;20464;-74
2022/01/28 09:35:43;;;;;;;54.00;21.77;;;;;;;2.69;100.00;61089.25;5113042;28;20445;-74
2022/01/28 09:38:15;;;;;;;53.03;23.43;;;;;;;2.95;100.00;61116.91;5116169;28;20433;-73
2022/01/28 09:40:42;;;;;;;46.57;21.57;;;;;;;3.09;100.00;61129.25;5116210;28;20433;-75
2022/01/28 09:43:12;;;;;;;46.37;20.80;;;;;;;2.20;100.00;61045.81;5116785;28;20517;-76
2022/01/28 09:45:42;;;;;;;49.60;21.90;;;;;;;3.14;100.00;61137.63;5116482;28;20476;-74
2022/01/28 09:48:12;;;;;;;56.50;23.13;;;;;;;3.13;100.00;61136.03;5116044;28;20436;-76
2022/01/28 09:50:39;;;;;;;57.63;23.67;;;;;;;2.76;100.00;61096.72;5116132;28;20432;-77
2022/01/28 09:53:08;;;;;;;55.23;25.47;;;;;;;3.72;100.00;61196.25;5116179;28;20943;-74
2022/01/28 09:55:36;;;;;;;65.77;26.77;;;;;;;3.59;100.00;61184.94;5115652;28;20551;-77
2022/01/28 09:58:08;;;;;;;63.83;23.30;;;;;;;3.90;100.00;61217.91;5115585;28;20449;-77
2022/01/28 10:00:36;;;;;;;57.13;26.93;;;;;;;4.08;100.00;61241.56;5098398;28;20437;-77
2022/01/28 10:03:08;;;;;;;62.63;26.77;;;;;;;4.00;100.00;61228.56;5097659;28;20527;-76
2022/01/28 10:05:37;;;;;;;66.77;27.93;;;;;;;4.49;100.00;61280.16;5116931;28;20524;-76
2022/01/28 10:08:09;;;;;;;62.33;28.83;;;;;;;4.35;100.00;61267.25;5115559;28;20967;-74
2022/01/28 10:10:52;;;;;;;67.00;27.67;;;;;;;3.47;100.00;61176.66;5115707;28;20452;-74
2022/01/28 10:13:26;;;;;;;70.10;28.83;;;;;;;4.36;100.00;61265.78;5115598;28;20512;-77
2022/01/28 10:16:04;;;;;;;77.53;32.93;;;;;;;4.19;100.00;61248.75;5115387;28;20497;-74
2022/01/28 10:18:55;;;;;;;75.93;31.40;;;;;;;4.26;100.00;61256.22;5115453;28;20494;-76
2022/01/28 10:21:27;;;;;;;79.63;33.30;;;;;;;3.72;100.00;61203.81;5111015;28;20444;-75
2022/01/28 10:24:16;;;;;;;77.13;30.10;;;;;;;4.17;100.00;61246.09;5115057;28;20951;-75
2022/01/28 10:26:46;;;;;;;64.00;28.83;;;;;;;3.85;100.00;61217.09;5117469;28;20857;-77
2022/01/28 10:29:17;;;;;;;71.33;31.90;;;;;;;3.46;100.00;61171.13;5100737;28;20445;-77
2022/01/28 10:31:55;;;;;;;71.83;30.30;;;;;;;3.70;100.00;61196.09;5115763;28;20484;-75
2022/01/28 10:34:30;;;;;;;71.90;31.37;;;;;;;3.81;100.00;61203.28;5117237;28;20476;-77
2022/01/28 10:37:28;;;;;;;83.17;33.93;;;;;;;3.86;100.00;61218.69;5115335;28;20493;-76
2022/01/28 10:40:02;;;;;;;109.90;43.07;;;;;;;3.52;100.00;61177.50;5102745;28;20448;-77
2022/01/28 10:42:48;;;;;;;119.30;42.00;;;;;;;3.20;100.00;61148.50;5115087;28;20448;-76
2022/01/28 10:45:19;;;;;;;81.33;34.87;;;;;;;3.30;100.00;61156.63;5115107;28;20445;-75
2022/01/28 10:47:49;;;;;;;75.60;33.10;;;;;;;3.41;100.00;61163.81;5113276;28;20520;-74
2022/01/28 10:50:26;;;;;;;72.47;30.20;;;;;;;3.44;100.00;61169.00;5096695;28;20437;-77
2022/01/28 10:53:03;;;;;;;66.17;31.10;;;;;;;3.51;100.00;61176.41;5115264;28;20560;-75
2022/01/28 10:55:34;;;;;;;69.37;31.03;;;;;;;3.37;100.00;61162.06;5114549;28;20440;-74
2022/01/28 10:58:06;;;;;;;64.33;30.43;;;;;;;3.80;100.00;61207.28;5115502;28;20556;-76
2022/01/28 11:00:39;;;;;;;74.93;32.10;;;;;;;3.73;100.00;61201.81;5096774;28;20831;-78
2022/01/28 11:06:02;;;;;;;69.60;32.63;;;;;;;3.62;100.00;61188.13;5113954;28;20470;-77
2022/01/28 11:08:34;;;;;;;70.57;31.27;;;;;;;3.86;100.00;61211.13;5114714;28;20464;-77
2022/01/28 11:11:02;;;;;;;77.77;33.00;;;;;;;3.74;100.00;61202.88;5114424;28;20429;-78
2022/01/28 11:13:33;;;;;;;68.90;32.27;;;;;;;3.84;100.00;61211.53;5114196;28;20493;-76
2022/01/28 11:16:02;;;;;;;77.33;32.87;;;;;;;3.91;100.00;61221.50;5114368;28;20433;-77
2022/01/28 11:18:30;;;;;;;71.87;32.97;;;;;;;3.98;100.00;61226.44;5115062;28;20490;-75
2022/01/28 11:21:09;;;;;;;73.97;33.40;;;;;;;3.94;100.00;61219.13;5114225;28;20501;-75
2022/01/28 11:23:51;;;;;;;71.40;32.90;;;;;;;3.49;100.00;61179.34;5096158;28;20442;-76
2022/01/28 11:26:22;;;;;;;78.80;33.33;;;;;;;2.58;100.00;61082.63;5113863;28;20449;-76
2022/01/28 11:28:51;;;;;;;72.63;33.17;;;;;;;4.20;100.00;61251.81;5114232;28;20441;-76
2022/01/28 11:31:43;;;;;;;71.57;30.20;;;;;;;3.27;100.00;61148.38;5114657;28;20847;-75
2022/01/28 11:34:19;;;;;;;65.57;26.20;;;;;;;4.36;100.00;61265.78;5113902;28;20476;-76
2022/01/28 11:36:49;;;;;;;46.90;20.77;;;;;;;4.28;100.00;61260.88;5113689;28;20437;-78
2022/01/28 11:39:30;;;;;;;47.67;19.67;;;;;;;4.44;100.00;61277.38;5095698;28;20600;-74
2022/01/28 11:42:04;;;;;;;40.10;17.77;;;;;;;4.57;100.00;61288.66;5114292;28;20425;-76
2022/01/28 11:44:45;;;;;;;35.73;16.87;;;;;;;4.57;100.00;61288.16;5113673;28;20441;-75
2022/01/28 11:47:23;;;;;;;36.57;16.27;;;;;;;4.55;100.00;61286.03;5113815;28;21016;-77
2022/01/28 11:49:54;;;;;;;31.87;16.40;;;;;;;3.80;100.00;61207.28;5114532;28;20470;-76
2022/01/28 11:52:29;;;;;;;35.03;16.97;;;;;;;3.52;100.00;61185.06;5113018;28;20476;-75
2022/01/28 11:55:20;;;;;;;38.00;16.70;;;;;;;3.39;100.00;61169.22;5095524;28;20523;-76
2022/01/28 11:57:52;;;;;;;36.63;16.80;;;;;;;4.57;100.00;61283.09;5113244;28;20516;-74
2022/01/28 12:00:24;;;;;;;41.90;16.30;;;;;;;3.14;100.00;61137.09;5113004;28;20472;-75
2022/01/28 12:03:03;;;;;;;35.70;16.63;;;;;;;4.78;100.00;61313.03;5113060;28;20441;-74
2022/01/28 12:06:05;;;;;;;36.43;18.53;;;;;;;4.89;100.00;61327.28;5113911;28;20857;-76
2022/01/28 12:08:35;;;;;;;42.87;19.23;;;;;;;5.02;100.00;61341.66;5108363;28;20869;-76
2022/01/28 12:11:07;;;;;;;29.77;14.20;;;;;;;5.01;100.00;61333.00;5113026;28;20448;-77
2022/01/28 12:13:49;;;;;;;24.43;11.67;;;;;;;4.87;100.00;61320.09;5112926;28;21006;-76
2022/01/28 12:16:29;;;;;;;20.30;9.60;;;;;;;4.44;100.00;61269.25;5113516;28;20959;-74
2022/01/28 12:18:57;;;;;;;21.83;9.67;;;;;;;5.05;100.00;61339.25;5115501;28;20448;-77
2022/01/28 12:21:27;;;;;;;16.40;8.40;;;;;;;5.23;100.00;61358.44;5112705;28;21024;-77
2022/01/28 12:24:13;;;;;;;15.57;8.47;;;;;;;5.25;100.00;61360.56;5113713;28;20471;-76
2022/01/28 12:27:00;;;;;;;20.93;9.97;;;;;;;5.21;100.00;61356.31;5112189;28;20502;-75
2022/01/28 12:29:30;;;;;;;18.43;8.50;;;;;;;4.22;100.00;61254.47;5113431;28;20476;-76
2022/01/28 12:32:00;;;;;;;18.47;9.40;;;;;;;4.73;100.00;61305.69;5115358;28;20438;-76
2022/01/28 12:34:30;;;;;;;18.50;9.47;;;;;;;4.49;100.00;61277.13;5093390;28;20581;-76
2022/01/28 12:36:58;;;;;;;20.37;9.70;;;;;;;5.38;100.00;61374.41;5095410;28;20442;-74
2022/01/28 12:39:36;;;;;;;18.67;9.13;;;;;;;5.34;100.00;61374.66;5092021;28;20446;-75
2022/01/28 12:42:08;;;;;;;19.00;9.33;;;;;;;4.93;100.00;61327.00;5092161;28;20437;-75
2022/01/28 12:44:37;;;;;;;25.70;10.47;;;;;;;5.58;100.00;61398.25;5091491;28;20558;-77
2022/01/28 12:47:09;;;;;;;23.83;11.33;;;;;;;5.59;100.00;61396.78;5091858;28;20816;-75
2022/01/28 12:49:38;;;;;;;26.07;13.13;;;;;;;5.59;100.00;61396.78;5091997;28;20460;-76
2022/01/28 12:52:09;;;;;;;28.90;12.73;;;;;;;5.65;100.00;61405.72;5091994;28;20481;-76
2022/01/28 12:54:40;;;;;;;40.20;14.87;;;;;;;5.60;100.00;61397.84;5092362;28;20430;-75
2022/01/28 12:57:10;;;;;;;35.07;16.10;;;;;;;4.64;100.00;61301.19;5092245;28;20454;-77